Time;durP1;ratioP1;P1;durP2;ratioP2;P2;SDS_P1;SDS_P2;PMS_P1;PMS_P2;Temp;Humidity;BMP_temperature;BMP_pressure;BME280_temperature;BME280_humidity;BME280_pressure;Samples;Min_cycle;Max_cycle;Signal;HPM_P1;HPM_P2
2022/12/09 00:01:14;;;;;;;13.95;5.93;;;3.50;81.10;;;;;;5068609;28;20358;-71
2022/12/09 00:03:42;;;;;;;14.70;6.00;;;3.50;81.10;;;;;;5086503;28;20573;-70
2022/12/09 00:06:11;;;;;;;13.85;5.90;;;3.50;81.10;;;;;;5071563;28;20055;-71
2022/12/09 00:08:38;;;;;;;14.80;6.32;;;3.50;81.10;;;;;;5068925;28;20108;-70
2022/12/09 00:11:07;;;;;;;16.63;6.50;;;3.40;81.10;;;;;;5068624;28;20056;-70
2022/12/09 00:13:35;;;;;;;15.35;6.78;;;3.40;81.10;;;;;;5084306;28;20250;-71
2022/12/09 00:16:05;;;;;;;17.17;6.93;;;3.50;81.10;;;;;;5088986;28;20456;-71
2022/12/09 00:18:33;;;;;;;18.35;7.82;;;3.50;81.10;;;;;;5089452;28;20045;-71
2022/12/09 00:21:10;;;;;;;15.52;6.47;;;3.40;81.10;;;;;;5090245;28;20055;-70
2022/12/09 00:23:37;;;;;;;15.17;6.90;;;3.40;81.00;;;;;;5090777;28;20052;-70
2022/12/09 00:26:04;;;;;;;15.20;7.00;;;3.40;81.00;;;;;;5089401;28;20812;-71
2022/12/09 00:28:32;;;;;;;16.33;7.00;;;3.40;81.10;;;;;;5090379;28;20057;-71
2022/12/09 00:30:59;;;;;;;15.35;7.10;;;3.40;81.00;;;;;;5088321;28;20092;-71
2022/12/09 00:33:26;;;;;;;14.20;6.25;;;3.40;81.00;;;;;;5072282;28;20063;-71
2022/12/09 00:35:53;;;;;;;13.97;6.00;;;3.40;81.00;;;;;;5068323;28;20049;-71
2022/12/09 00:38:20;;;;;;;15.40;6.13;;;3.40;81.00;;;;;;5088341;28;20268;-71
2022/12/09 00:40:47;;;;;;;15.35;6.20;;;3.40;81.10;;;;;;5067390;28;20057;-70
2022/12/09 00:43:15;;;;;;;13.40;5.97;;;3.40;81.10;;;;;;5088964;28;20051;-71
2022/12/09 00:45:44;;;;;;;15.63;6.40;;;3.40;81.20;;;;;;5071663;28;20496;-71
2022/12/09 00:48:11;;;;;;;16.67;6.50;;;3.50;81.30;;;;;;5087441;28;20178;-71
2022/12/09 00:50:38;;;;;;;15.13;5.80;;;3.50;81.30;;;;;;5057847;28;20276;-71
2022/12/09 00:53:05;;;;;;;12.55;5.85;;;3.50;81.40;;;;;;5068467;28;20090;-71
2022/12/09 00:55:33;;;;;;;14.80;5.82;;;3.50;81.50;;;;;;5068471;28;20053;-71
2022/12/09 00:58:00;;;;;;;12.57;5.78;;;3.50;81.50;;;;;;5051732;28;20548;-71
2022/12/09 01:00:27;;;;;;;14.93;6.50;;;3.50;81.60;;;;;;5081439;28;20076;-70
2022/12/09 01:02:55;;;;;;;14.55;6.03;;;3.50;81.60;;;;;;5071662;28;20250;-71
2022/12/09 01:05:23;;;;;;;14.68;5.63;;;3.50;81.50;;;;;;5053245;28;20041;-71
2022/12/09 01:07:50;;;;;;;13.98;5.60;;;3.50;81.50;;;;;;5051309;28;20133;-71
2022/12/09 01:10:17;;;;;;;15.68;6.80;;;3.50;81.50;;;;;;5084735;28;20859;-71
2022/12/09 01:12:45;;;;;;;14.33;6.37;;;3.50;81.50;;;;;;5088447;28;20131;-71
2022/12/09 01:15:12;;;;;;;14.10;5.70;;;3.50;81.40;;;;;;5086853;28;20326;-71
2022/12/09 01:17:40;;;;;;;13.70;6.10;;;3.50;81.20;;;;;;5090020;28;20075;-71
2022/12/09 01:20:10;;;;;;;15.60;6.10;;;3.50;81.20;;;;;;5074325;28;20053;-71
2022/12/09 01:22:37;;;;;;;15.30;6.35;;;3.50;81.10;;;;;;5088530;28;20069;-71
2022/12/09 01:25:04;;;;;;;14.90;6.60;;;3.50;81.00;;;;;;5073465;28;20057;-71
2022/12/09 01:27:32;;;;;;;13.95;6.30;;;3.50;81.10;;;;;;5051067;28;20323;-71
2022/12/09 01:29:59;;;;;;;15.20;6.32;;;3.50;81.20;;;;;;5050741;28;20994;-71
2022/12/09 01:32:26;;;;;;;14.75;6.47;;;3.50;81.40;;;;;;5051452;28;20424;-71
2022/12/09 01:34:53;;;;;;;14.60;6.68;;;3.50;81.30;;;;;;5072953;28;20149;-71
2022/12/09 01:37:21;;;;;;;14.70;6.30;;;3.50;81.10;;;;;;5070953;28;20048;-71
2022/12/09 01:39:49;;;;;;;14.13;5.72;;;3.50;81.00;;;;;;5066211;28;20278;-71
2022/12/09 01:42:19;;;;;;;14.15;6.57;;;3.50;81.10;;;;;;5085231;28;20077;-71
2022/12/09 01:45:29;;;;;;;15.15;6.15;;;3.50;81.20;;;;;;5052367;28;20045;-70
2022/12/09 01:48:00;;;;;;;14.98;6.30;;;3.50;81.20;;;;;;5067702;28;20053;-71
2022/12/09 01:50:28;;;;;;;13.30;5.67;;;3.50;81.20;;;;;;5068887;28;20053;-71
2022/12/09 01:52:57;;;;;;;15.48;5.80;;;3.50;81.20;;;;;;5053773;28;20276;-71
2022/12/09 01:55:26;;;;;;;14.70;6.43;;;3.50;81.10;;;;;;5086675;28;20053;-71
2022/12/09 01:57:53;;;;;;;16.23;6.25;;;3.50;81.00;;;;;;5071140;28;20044;-71
2022/12/09 02:00:21;;;;;;;14.30;5.95;;;3.50;80.90;;;;;;5087292;28;20074;-71
2022/12/09 02:02:51;;;;;;;13.53;5.87;;;3.50;80.90;;;;;;5087914;28;20045;-71
2022/12/09 02:05:23;;;;;;;12.75;5.43;;;3.50;80.80;;;;;;5087855;28;20266;-70
2022/12/09 02:07:55;;;;;;;14.52;5.70;;;3.50;80.70;;;;;;5070760;28;20815;-71
2022/12/09 02:10:23;;;;;;;17.88;5.93;;;3.50;80.70;;;;;;5087966;28;20110;-71
2022/12/09 02:13:06;;;;;;;13.32;5.88;;;3.50;80.60;;;;;;5069524;28;20079;-71
2022/12/09 02:15:42;;;;;;;13.67;5.40;;;3.50;80.40;;;;;;5087797;28;20069;-71
2022/12/09 02:18:17;;;;;;;14.15;5.60;;;3.50;80.20;;;;;;5070618;28;20971;-71
2022/12/09 02:20:49;;;;;;;15.23;6.50;;;3.50;80.30;;;;;;5087348;28;20067;-71
2022/12/09 02:23:21;;;;;;;15.38;6.35;;;3.50;80.50;;;;;;5083277;28;20080;-71
2022/12/09 02:25:55;;;;;;;13.80;5.95;;;3.50;80.40;;;;;;5051880;28;20132;-71
2022/12/09 02:28:55;;;;;;;13.50;5.67;;;3.50;80.30;;;;;;5070520;28;20061;-71
2022/12/09 02:31:38;;;;;;;14.30;6.10;;;3.40;80.10;;;;;;5027689;28;20267;-71
2022/12/09 02:34:12;;;;;;;18.05;6.82;;;3.30;80.20;;;;;;5053638;28;20048;-71
2022/12/09 02:36:49;;;;;;;13.38;5.85;;;3.30;80.30;;;;;;5090291;28;20048;-71
2022/12/09 02:39:24;;;;;;;13.20;5.72;;;3.40;80.30;;;;;;5071785;28;20956;-71
2022/12/09 02:41:54;;;;;;;13.07;5.30;;;3.30;80.20;;;;;;5053681;28;20041;-71
2022/12/09 02:44:24;;;;;;;12.45;5.22;;;3.30;80.30;;;;;;5070459;28;20353;-71
2022/12/09 02:46:53;;;;;;;13.45;5.82;;;3.30;80.40;;;;;;5052772;28;20045;-70
2022/12/09 02:49:24;;;;;;;14.77;5.90;;;3.30;80.50;;;;;;5070266;28;20106;-71
2022/12/09 02:51:54;;;;;;;14.57;5.80;;;3.30;80.30;;;;;;5072826;28;20098;-71
2022/12/09 02:54:23;;;;;;;14.63;5.70;;;3.30;80.30;;;;;;5073447;28;20049;-71
2022/12/09 02:56:55;;;;;;;12.85;5.70;;;3.30;80.20;;;;;;5083470;28;20256;-71
2022/12/09 02:59:24;;;;;;;12.10;4.75;;;3.30;80.20;;;;;;5052583;28;20065;-71
2022/12/09 03:02:19;;;;;;;12.00;5.15;;;3.30;80.20;;;;;;5071307;28;20053;-71
2022/12/09 03:04:57;;;;;;;14.48;5.72;;;3.30;80.30;;;;;;5075870;28;20044;-70
2022/12/09 03:07:31;;;;;;;13.67;5.47;;;3.30;80.50;;;;;;5090689;28;20059;-71
2022/12/09 03:10:05;;;;;;;13.32;5.72;;;3.30;80.50;;;;;;5083127;28;20260;-71
2022/12/09 03:12:34;;;;;;;13.00;5.60;;;3.30;80.50;;;;;;5071668;28;20130;-71
2022/12/09 03:15:05;;;;;;;13.43;5.57;;;3.30;80.60;;;;;;5071927;28;20053;-71
2022/12/09 03:17:36;;;;;;;13.35;5.47;;;3.30;80.60;;;;;;5071082;28;20059;-71
2022/12/09 03:20:08;;;;;;;14.83;6.13;;;3.30;80.70;;;;;;5069900;28;20049;-71
2022/12/09 03:22:37;;;;;;;12.20;5.13;;;3.30;80.40;;;;;;5070333;28;20290;-71
2022/12/09 03:25:08;;;;;;;14.07;5.97;;;3.30;80.40;;;;;;5079478;28;20052;-71
2022/12/09 03:27:40;;;;;;;14.32;6.20;;;3.30;80.40;;;;;;5090092;28;20052;-71
2022/12/09 03:30:09;;;;;;;13.30;4.95;;;3.30;80.50;;;;;;5081227;28;20128;-71
2022/12/09 03:32:38;;;;;;;12.07;4.47;;;3.30;80.50;;;;;;5069512;28;20096;-71
2022/12/09 03:35:10;;;;;;;12.00;5.32;;;3.30;80.60;;;;;;5077628;28;20263;-71
2022/12/09 03:37:40;;;;;;;14.40;5.07;;;3.30;80.70;;;;;;5089294;28;20051;-71
2022/12/09 03:40:11;;;;;;;13.07;4.95;;;3.30;80.70;;;;;;5076173;28;20111;-70
2022/12/09 03:42:44;;;;;;;11.73;4.72;;;3.30;80.60;;;;;;5053012;28;20049;-71
2022/12/09 03:45:12;;;;;;;12.27;5.27;;;3.30;80.60;;;;;;5083575;28;20098;-71
2022/12/09 03:47:40;;;;;;;12.18;4.78;;;3.30;80.60;;;;;;5089663;28;20260;-71
2022/12/09 03:50:09;;;;;;;12.57;5.05;;;3.30;80.40;;;;;;5089618;28;20052;-71
2022/12/09 03:52:40;;;;;;;10.65;4.63;;;3.20;80.50;;;;;;5090040;28;20078;-71
2022/12/09 03:55:12;;;;;;;11.52;4.53;;;3.20;80.50;;;;;;5090860;28;20604;-71
2022/12/09 03:57:43;;;;;;;11.73;4.73;;;3.20;80.40;;;;;;5073480;28;20139;-71
2022/12/09 04:00:11;;;;;;;11.25;4.90;;;3.30;80.50;;;;;;5082287;28;20278;-71
2022/12/09 04:02:40;;;;;;;10.98;4.53;;;3.20;80.50;;;;;;5091126;28;20137;-71
2022/12/09 04:05:10;;;;;;;11.45;4.50;;;3.20;80.50;;;;;;5073018;28;20044;-71
2022/12/09 04:07:37;;;;;;;10.65;4.38;;;3.20;80.30;;;;;;5070625;28;20049;-71
2022/12/09 04:10:05;;;;;;;10.53;4.80;;;3.20;80.30;;;;;;5070236;28;20091;-71
2022/12/09 04:12:32;;;;;;;14.65;5.60;;;3.20;80.00;;;;;;5074126;28;20280;-71
2022/12/09 04:14:59;;;;;;;11.82;4.82;;;3.10;79.90;;;;;;5069004;28;20061;-71
2022/12/09 04:17:26;;;;;;;11.40;4.55;;;3.10;80.00;;;;;;5069378;28;20590;-70
2022/12/09 04:19:53;;;;;;;11.40;4.63;;;3.10;80.00;;;;;;5095254;28;20127;-70
2022/12/09 04:22:22;;;;;;;10.93;4.50;;;3.10;80.00;;;;;;5088993;28;20135;-71
2022/12/09 04:24:49;;;;;;;9.82;4.07;;;3.10;80.00;;;;;;5088737;28;20704;-71
2022/12/09 04:27:16;;;;;;;10.63;4.05;;;3.00;79.60;;;;;;5090604;28;20435;-70
2022/12/09 04:29:45;;;;;;;10.70;4.80;;;3.00;79.80;;;;;;5088764;28;20044;-71
2022/12/09 04:32:12;;;;;;;11.32;4.80;;;3.00;79.80;;;;;;5072217;28;20048;-71
2022/12/09 04:34:39;;;;;;;12.17;5.10;;;3.00;79.90;;;;;;5070037;28;20127;-71
2022/12/09 04:37:06;;;;;;;12.63;5.35;;;3.00;79.60;;;;;;5069098;28;20712;-71
2022/12/09 04:39:34;;;;;;;12.73;5.47;;;3.00;79.80;;;;;;5068356;28;20052;-70
2022/12/09 04:42:01;;;;;;;14.38;6.20;;;3.00;79.70;;;;;;5068574;28;20041;-71
2022/12/09 04:44:29;;;;;;;13.45;5.85;;;2.90;79.60;;;;;;5068729;28;20053;-71
2022/12/09 04:46:56;;;;;;;12.80;5.10;;;2.90;79.70;;;;;;5068486;28;20056;-70
2022/12/09 04:49:23;;;;;;;13.68;5.43;;;2.90;79.60;;;;;;5082871;28;20727;-70
2022/12/09 04:51:50;;;;;;;13.90;6.10;;;2.90;79.70;;;;;;5076781;28;20820;-71
2022/12/09 04:54:17;;;;;;;14.35;5.65;;;2.90;79.70;;;;;;5068991;28;20132;-70
2022/12/09 04:56:45;;;;;;;13.55;5.35;;;2.90;79.60;;;;;;5073156;28;20111;-71
2022/12/09 04:59:13;;;;;;;13.20;5.60;;;2.90;79.70;;;;;;5069532;28;20045;-70
2022/12/09 05:01:40;;;;;;;16.73;6.03;;;2.90;79.40;;;;;;5068371;28;20855;-71
2022/12/09 05:04:08;;;;;;;15.57;6.00;;;2.90;79.30;;;;;;5068694;28;20049;-71
2022/12/09 05:06:35;;;;;;;14.18;5.32;;;2.80;79.20;;;;;;5082618;28;20048;-71
2022/12/09 05:09:03;;;;;;;13.90;5.60;;;2.80;79.20;;;;;;5089605;28;20540;-71
2022/12/09 05:11:30;;;;;;;13.60;5.77;;;2.80;79.30;;;;;;5074734;28;20051;-71
2022/12/09 05:13:59;;;;;;;13.68;5.70;;;2.70;79.30;;;;;;5068350;28;21045;-70
2022/12/09 05:16:27;;;;;;;13.43;5.72;;;2.70;79.30;;;;;;5068122;28;20049;-71
2022/12/09 05:18:54;;;;;;;14.35;5.75;;;2.70;79.30;;;;;;5069236;28;20154;-71
2022/12/09 05:21:21;;;;;;;15.85;5.10;;;2.70;79.10;;;;;;5079778;28;20044;-70
2022/12/09 05:23:49;;;;;;;13.00;5.40;;;2.70;79.20;;;;;;5074934;28;20073;-70
2022/12/09 05:26:19;;;;;;;14.43;5.95;;;2.70;78.90;;;;;;5079877;28;20442;-71
2022/12/09 05:28:46;;;;;;;13.10;5.53;;;2.70;79.10;;;;;;5088120;28;20521;-71
2022/12/09 05:31:18;;;;;;;14.88;5.50;;;2.70;79.10;;;;;;5089186;28;20057;-71
2022/12/09 05:33:45;;;;;;;14.20;5.68;;;2.70;79.10;;;;;;5089494;28;20151;-71
2022/12/09 05:36:14;;;;;;;11.83;5.17;;;2.70;79.00;;;;;;5079846;28;20128;-70
2022/12/09 05:38:42;;;;;;;13.00;5.53;;;2.60;78.70;;;;;;5067869;28;20256;-70
2022/12/09 05:41:10;;;;;;;15.95;5.95;;;2.50;78.70;;;;;;5081353;28;20582;-70
2022/12/09 05:43:37;;;;;;;13.55;5.90;;;2.50;78.60;;;;;;5088175;28;20048;-70
2022/12/09 05:46:05;;;;;;;14.25;5.93;;;2.50;78.50;;;;;;5074050;28;20053;-71
2022/12/09 05:48:33;;;;;;;14.30;6.10;;;2.50;78.50;;;;;;5069220;28;20049;-70
2022/12/09 05:51:03;;;;;;;15.07;5.90;;;2.50;78.40;;;;;;5075009;28;21177;-71
2022/12/09 05:53:30;;;;;;;15.35;6.50;;;2.40;78.50;;;;;;5050988;28;20079;-70
2022/12/09 05:55:57;;;;;;;16.05;6.22;;;2.40;78.70;;;;;;5068196;28;20045;-70
2022/12/09 05:58:24;;;;;;;13.05;5.15;;;2.40;78.70;;;;;;5078151;28;20040;-70
2022/12/09 06:00:55;;;;;;;17.27;6.73;;;2.40;78.60;;;;;;5087833;28;20059;-70
2022/12/09 06:03:23;;;;;;;15.00;5.72;;;2.30;78.20;;;;;;5071179;28;20272;-70
2022/12/09 06:05:51;;;;;;;12.73;5.68;;;2.30;78.30;;;;;;5082962;28;20048;-70
2022/12/09 06:08:18;;;;;;;18.15;7.45;;;2.20;78.50;;;;;;5092649;28;20082;-71
2022/12/09 06:10:45;;;;;;;16.63;6.72;;;2.20;78.50;;;;;;5090706;28;20055;-70
2022/12/09 06:13:13;;;;;;;16.10;6.90;;;2.20;78.50;;;;;;5092685;28;20541;-70
2022/12/09 06:15:41;;;;;;;16.98;6.85;;;2.20;78.30;;;;;;5089688;28;20263;-71
2022/12/09 06:18:08;;;;;;;14.43;5.78;;;2.10;78.50;;;;;;5092680;28;20048;-70
2022/12/09 06:20:38;;;;;;;15.02;5.82;;;2.10;78.50;;;;;;5083597;28;20243;-70
2022/12/09 06:23:07;;;;;;;15.75;6.22;;;2.10;78.40;;;;;;5070861;28;20053;-71
2022/12/09 06:25:35;;;;;;;15.00;6.40;;;2.10;78.60;;;;;;5084393;28;20473;-71
2022/12/09 06:28:02;;;;;;;15.77;6.28;;;2.10;78.70;;;;;;5092744;28;20248;-71
2022/12/09 06:30:30;;;;;;;14.70;5.95;;;2.10;78.70;;;;;;5084811;28;20048;-70
2022/12/09 06:32:57;;;;;;;14.90;6.55;;;2.10;78.70;;;;;;5079614;28;20059;-70
2022/12/09 06:35:24;;;;;;;15.75;6.30;;;2.10;78.70;;;;;;5089485;28;20057;-71
2022/12/09 06:37:52;;;;;;;12.83;5.50;;;2.10;78.70;;;;;;5090887;28;20120;-71
2022/12/09 06:40:21;;;;;;;13.20;5.78;;;2.10;78.80;;;;;;5085398;28;20283;-70
2022/12/09 06:42:49;;;;;;;15.23;6.00;;;2.10;78.90;;;;;;5082579;28;20102;-70
2022/12/09 06:45:16;;;;;;;14.23;6.00;;;2.10;78.90;;;;;;5085360;28;20045;-70
2022/12/09 06:47:43;;;;;;;14.88;5.70;;;2.10;78.60;;;;;;5069286;28;20049;-70
2022/12/09 06:50:10;;;;;;;14.87;6.13;;;2.10;78.30;;;;;;5068860;28;20052;-70
2022/12/09 06:52:39;;;;;;;13.70;5.88;;;2.00;78.60;;;;;;5069495;28;20280;-70
2022/12/09 06:55:08;;;;;;;16.05;6.20;;;2.00;78.80;;;;;;5075553;28;20801;-70
2022/12/09 06:57:36;;;;;;;16.85;6.25;;;2.00;78.70;;;;;;5091061;28;20202;-71
2022/12/09 07:00:05;;;;;;;16.02;5.65;;;2.00;78.80;;;;;;5089932;28;20100;-70
2022/12/09 07:02:33;;;;;;;14.57;6.30;;;2.00;78.70;;;;;;5086279;28;20543;-70
2022/12/09 07:05:00;;;;;;;13.82;5.97;;;2.00;78.50;;;;;;5083464;28;20241;-70
2022/12/09 07:07:27;;;;;;;13.73;5.55;;;2.00;78.30;;;;;;5084723;28;20080;-70
2022/12/09 07:09:54;;;;;;;17.65;6.93;;;1.90;78.20;;;;;;5087913;28;20061;-71
2022/12/09 07:12:21;;;;;;;15.57;6.00;;;1.80;78.30;;;;;;5087050;28;20049;-70
2022/12/09 07:14:49;;;;;;;14.73;6.40;;;1.80;78.50;;;;;;5005010;27;20090;-70
2022/12/09 07:17:17;;;;;;;15.02;5.93;;;1.80;78.60;;;;;;5030709;28;20295;-71
2022/12/09 07:19:44;;;;;;;14.05;5.80;;;1.80;78.60;;;;;;5087389;28;20052;-71
2022/12/09 07:22:12;;;;;;;14.27;5.22;;;1.80;78.50;;;;;;5086442;28;20056;-71
2022/12/09 07:24:40;;;;;;;13.98;5.68;;;1.80;78.00;;;;;;5089063;28;20049;-71
2022/12/09 07:27:09;;;;;;;15.00;6.27;;;1.70;78.10;;;;;;5084785;28;20123;-71
2022/12/09 07:29:36;;;;;;;16.75;6.68;;;1.60;78.20;;;;;;5087562;28;20275;-71
2022/12/09 07:32:05;;;;;;;14.90;5.90;;;1.60;78.40;;;;;;5087266;28;20140;-70
2022/12/09 07:34:33;;;;;;;15.98;5.75;;;1.60;78.70;;;;;;5082042;28;20507;-70
2022/12/09 07:37:00;;;;;;;15.60;5.95;;;1.60;78.80;;;;;;5079260;28;20737;-70
2022/12/09 07:39:27;;;;;;;13.83;5.20;;;1.60;78.80;;;;;;5076053;28;20574;-70
2022/12/09 07:41:56;;;;;;;13.25;6.13;;;1.50;78.60;;;;;;5086173;28;20411;-70
2022/12/09 07:44:27;;;;;;;14.02;5.80;;;1.60;78.70;;;;;;5060491;28;20972;-71
2022/12/09 07:46:55;;;;;;;14.23;5.87;;;1.50;78.70;;;;;;5043082;28;1074650;-71
2022/12/09 07:49:24;;;;;;;16.58;6.43;;;1.50;78.70;;;;;;5060431;28;20069;-71
2022/12/09 07:51:51;;;;;;;15.40;5.82;;;1.50;78.70;;;;;;5077310;28;20045;-70
2022/12/09 07:54:19;;;;;;;18.30;6.77;;;1.50;78.70;;;;;;5078909;28;20052;-70
2022/12/09 07:56:46;;;;;;;16.70;6.63;;;1.50;78.70;;;;;;5088895;28;20267;-70
2022/12/09 07:59:15;;;;;;;14.52;5.75;;;1.50;78.40;;;;;;5080413;28;20053;-70
2022/12/09 08:01:42;;;;;;;14.68;5.78;;;1.50;78.50;;;;;;5084382;28;20510;-71
2022/12/09 08:04:09;;;;;;;13.57;5.47;;;1.50;78.60;;;;;;5077696;28;20151;-71
2022/12/09 08:06:38;;;;;;;15.27;5.93;;;1.50;78.50;;;;;;5079043;28;20060;-70
2022/12/09 08:09:08;;;;;;;12.43;5.25;;;1.50;78.50;;;;;;5078379;28;20287;-71
2022/12/09 08:11:35;;;;;;;14.05;6.10;;;1.50;78.40;;;;;;5085891;28;20054;-70
2022/12/09 08:14:04;;;;;;;14.65;5.53;;;1.40;78.10;;;;;;5116338;22;20052;-71
2022/12/09 08:16:31;;;;;;;16.15;6.40;;;1.40;78.00;;;;;;5088793;28;20056;-70
2022/12/09 08:18:59;;;;;;;16.57;6.70;;;1.40;78.20;;;;;;5085078;28;20055;-70
2022/12/09 08:21:28;;;;;;;18.08;6.75;;;1.40;78.40;;;;;;5088280;28;20301;-71
2022/12/09 08:23:57;;;;;;;15.43;6.68;;;1.40;78.50;;;;;;5086065;28;20056;-70
2022/12/09 08:26:27;;;;;;;16.65;6.28;;;1.40;78.60;;;;;;5086019;28;20617;-70
2022/12/09 08:28:55;;;;;;;14.57;6.10;;;1.40;78.50;;;;;;5088367;28;20053;-70
2022/12/09 08:31:24;;;;;;;16.97;6.53;;;1.40;78.50;;;;;;5088393;28;20055;-70
2022/12/09 08:33:53;;;;;;;19.10;7.07;;;1.40;78.50;;;;;;5089584;28;20853;-70
2022/12/09 08:36:21;;;;;;;17.90;7.38;;;1.30;78.50;;;;;;5086402;28;20088;-70
2022/12/09 08:38:49;;;;;;;16.40;6.75;;;1.30;78.70;;;;;;5085108;28;20075;-70
2022/12/09 08:41:20;;;;;;;16.88;6.65;;;1.20;79.10;;;;;;5088421;28;20041;-70
2022/12/09 08:43:48;;;;;;;20.07;7.53;;;1.20;79.60;;;;;;5088500;28;20835;-70
2022/12/09 08:46:15;;;;;;;19.15;7.57;;;1.20;79.70;;;;;;5086553;28;20321;-70
2022/12/09 08:48:43;;;;;;;21.27;8.90;;;1.20;79.70;;;;;;5086784;28;20060;-70
2022/12/09 08:51:11;;;;;;;21.05;8.70;;;1.20;79.60;;;;;;5071300;28;20120;-70
2022/12/09 08:53:39;;;;;;;19.58;8.15;;;1.10;79.70;;;;;;5084421;28;20049;-70
2022/12/09 08:56:11;;;;;;;23.13;9.40;;;1.10;79.90;;;;;;5088090;28;20060;-70
2022/12/09 08:58:40;;;;;;;24.95;10.43;;;1.10;80.10;;;;;;5069796;28;20271;-70
2022/12/09 09:01:13;;;;;;;31.55;12.40;;;1.10;80.70;;;;;;5079030;28;20122;-70
2022/12/09 09:03:40;;;;;;;48.97;14.05;;;1.10;80.50;;;;;;5080850;28;20060;-70
2022/12/09 09:06:08;;;;;;;37.05;13.10;;;1.10;80.90;;;;;;5079385;28;20041;-70
2022/12/09 09:08:36;;;;;;;108.20;15.63;;;1.10;81.20;;;;;;5086879;28;20053;-70
2022/12/09 09:11:09;;;;;;;97.97;14.10;;;1.20;81.70;;;;;;5082267;28;20331;-70
2022/12/09 09:13:52;;;;;;;53.15;11.50;;;1.20;82.00;;;;;;5086586;28;20451;-70
2022/12/09 09:16:21;;;;;;;56.42;12.45;;;1.20;82.10;;;;;;5085277;28;20183;-70
2022/12/09 09:18:48;;;;;;;79.35;13.48;;;1.30;82.20;;;;;;5089332;28;20053;-70
2022/12/09 09:21:18;;;;;;;75.43;13.63;;;1.20;82.30;;;;;;5088960;28;20080;-70
2022/12/09 09:23:45;;;;;;;94.90;15.30;;;1.20;82.30;;;;;;5083208;28;20392;-69
2022/12/09 09:26:14;;;;;;;135.50;16.85;;;1.20;82.60;;;;;;5085851;28;20051;-69
2022/12/09 09:28:41;;;;;;;104.00;14.55;;;1.20;83.00;;;;;;5085493;28;20041;-69
2022/12/09 09:31:16;;;;;;;76.47;14.75;;;1.20;83.00;;;;;;5083040;28;20143;-70
2022/12/09 09:33:43;;;;;;;42.50;12.03;;;1.20;83.40;;;;;;5077579;28;20455;-69
2022/12/09 09:36:14;;;;;;;38.58;11.32;;;1.20;83.30;;;;;;5080599;28;20755;-70
2022/12/09 09:38:41;;;;;;;37.92;10.20;;;1.20;83.30;;;;;;5080473;28;20048;-70
2022/12/09 09:41:20;;;;;;;39.83;12.45;;;1.20;83.50;;;;;;5106554;28;20135;-70
2022/12/09 09:43:48;;;;;;;43.08;10.60;;;1.20;83.40;;;;;;5106579;28;20478;-70
2022/12/09 09:46:20;;;;;;;45.57;13.30;;;1.20;83.50;;;;;;5081193;28;20045;-69
2022/12/09 09:48:49;;;;;;;41.17;11.85;;;1.20;83.50;;;;;;5106247;28;20378;-69
2022/12/09 09:51:18;;;;;;;31.55;11.68;;;1.20;83.60;;;;;;5081862;28;20628;-70
2022/12/09 09:53:50;;;;;;;30.95;9.93;;;1.20;83.60;;;;;;5092321;28;20058;-70
2022/12/09 09:56:24;;;;;;;44.97;11.38;;;1.20;83.70;;;;;;5092101;28;20045;-70
2022/12/09 09:59:00;;;;;;;56.30;12.50;;;1.10;83.70;;;;;;5089216;28;20051;-69
2022/12/09 10:01:33;;;;;;;28.80;10.70;;;1.10;83.70;;;;;;5088905;28;20248;-69
2022/12/09 10:04:13;;;;;;;40.83;11.80;;;1.00;83.90;;;;;;5088255;28;20213;-70
2022/12/09 10:06:46;;;;;;;43.47;11.85;;;1.00;83.90;;;;;;5082687;28;21073;-69
2022/12/09 10:09:21;;;;;;;60.53;13.80;;;1.00;84.00;;;;;;5082454;28;20049;-69
2022/12/09 10:11:57;;;;;;;40.60;11.43;;;1.00;84.00;;;;;;5083429;28;20132;-69
2022/12/09 10:14:38;;;;;;;46.67;11.43;;;1.00;84.10;;;;;;5077803;28;20255;-69
2022/12/09 10:17:21;;;;;;;47.03;12.48;;;1.00;84.20;;;;;;5080936;28;20127;-70
2022/12/09 10:19:51;;;;;;;39.70;11.90;;;1.00;84.40;;;;;;5078176;28;20543;-69
2022/12/09 10:22:21;;;;;;;33.10;12.15;;;1.00;84.50;;;;;;5080412;28;20104;-69
2022/12/09 10:24:50;;;;;;;32.50;12.10;;;1.00;84.50;;;;;;5106961;28;20103;-71
2022/12/09 10:27:28;;;;;;;44.40;13.65;;;1.00;84.50;;;;;;5092170;28;20251;-71
2022/12/09 10:29:57;;;;;;;35.10;12.57;;;1.10;84.60;;;;;;5090013;28;20106;-70
2022/12/09 10:32:28;;;;;;;32.58;11.48;;;1.10;85.00;;;;;;5086590;28;20055;-70
2022/12/09 10:34:56;;;;;;;37.92;12.02;;;1.10;84.90;;;;;;5087892;28;20049;-70
2022/12/09 10:37:28;;;;;;;32.07;12.10;;;1.10;84.90;;;;;;5075048;28;20132;-70
2022/12/09 10:40:00;;;;;;;32.78;12.45;;;1.10;84.80;;;;;;5089733;28;20275;-71
2022/12/09 10:45:16;;;;;;;32.08;12.70;;;1.00;85.10;;;;;;5077940;28;20067;-70
2022/12/09 10:47:51;;;;;;;37.83;13.48;;;1.00;85.20;;;;;;5079308;28;20068;-70
2022/12/09 10:50:31;;;;;;;28.50;11.60;;;1.10;85.10;;;;;;5080895;28;20044;-70
2022/12/09 10:53:04;;;;;;;46.55;12.40;;;1.10;85.10;;;;;;5083241;28;20251;-70
2022/12/09 10:55:35;;;;;;;29.75;11.93;;;1.10;85.10;;;;;;5075472;28;20049;-70
2022/12/09 10:58:11;;;;;;;34.28;13.13;;;1.10;85.20;;;;;;5071634;28;20053;-70
2022/12/09 11:00:38;;;;;;;31.83;12.10;;;1.10;85.20;;;;;;5072097;28;20049;-70
2022/12/09 11:03:24;;;;;;;38.83;13.47;;;1.10;85.20;;;;;;5090251;28;20789;-70
2022/12/09 11:05:56;;;;;;;28.75;10.70;;;1.10;85.30;;;;;;5090074;28;20283;-70
2022/12/09 11:08:24;;;;;;;30.42;12.35;;;1.10;85.50;;;;;;5079391;28;20140;-70
2022/12/09 11:10:51;;;;;;;35.40;12.35;;;1.10;85.40;;;;;;5104050;28;20053;-70
2022/12/09 11:13:19;;;;;;;35.55;13.35;;;1.10;85.40;;;;;;5076271;28;20059;-70
2022/12/09 11:15:52;;;;;;;32.17;11.97;;;1.10;85.50;;;;;;5084904;28;20146;-70
2022/12/09 11:18:24;;;;;;;33.92;12.10;;;1.10;85.50;;;;;;5073708;28;20300;-70
2022/12/09 11:20:57;;;;;;;35.33;13.27;;;1.10;85.70;;;;;;5070729;28;20051;-70
2022/12/09 11:23:24;;;;;;;38.30;14.43;;;1.20;85.60;;;;;;5090026;28;20147;-70
2022/12/09 11:25:54;;;;;;;35.38;12.93;;;1.20;85.80;;;;;;5090105;28;20072;-70
2022/12/09 11:28:27;;;;;;;33.30;12.73;;;1.20;85.80;;;;;;5091300;28;20053;-70
2022/12/09 11:30:57;;;;;;;39.70;14.30;;;1.20;85.80;;;;;;5072596;28;20363;-70
2022/12/09 11:33:29;;;;;;;38.08;15.18;;;1.20;85.80;;;;;;5089680;28;20073;-70
2022/12/09 11:36:02;;;;;;;34.17;12.75;;;1.20;85.90;;;;;;5091279;28;20482;-70
2022/12/09 11:38:39;;;;;;;35.28;13.73;;;1.20;85.90;;;;;;5090937;28;20087;-70
2022/12/09 11:42:12;;;;;;;35.73;14.30;;;1.30;86.00;;;;;;5089198;28;20055;-70
2022/12/09 11:44:12;;;;;;;30.40;10.65;;;1.30;86.00;;;;;;5080675;28;20256;-70
2022/12/09 11:46:41;;;;;;;31.67;11.30;;;1.30;86.10;;;;;;5079671;28;20052;-70
2022/12/09 11:49:16;;;;;;;30.85;11.55;;;1.30;86.20;;;;;;5106197;28;20053;-70
2022/12/09 11:51:58;;;;;;;30.73;11.57;;;1.40;86.10;;;;;;5083467;28;20190;-70
2022/12/09 11:54:29;;;;;;;31.90;12.40;;;1.40;86.10;;;;;;5080383;28;20077;-70
2022/12/09 11:56:58;;;;;;;34.67;12.00;;;1.40;86.20;;;;;;5071753;28;20341;-70
2022/12/09 11:59:33;;;;;;;30.67;11.60;;;1.40;86.20;;;;;;5088124;28;20064;-70
2022/12/09 12:02:05;;;;;;;31.70;11.95;;;1.40;86.10;;;;;;5090282;28;20098;-70
2022/12/09 12:04:39;;;;;;;34.83;12.65;;;1.40;86.20;;;;;;5078604;28;20053;-70
2022/12/09 12:07:11;;;;;;;29.23;11.50;;;1.40;86.20;;;;;;5075814;28;20163;-71
2022/12/09 12:09:44;;;;;;;34.80;12.07;;;1.40;86.30;;;;;;5080368;28;20315;-70
2022/12/09 12:12:21;;;;;;;33.30;13.30;;;1.40;86.30;;;;;;5080037;28;20102;-70
2022/12/09 12:14:48;;;;;;;34.33;12.70;;;1.50;86.30;;;;;;5086183;28;20055;-70
2022/12/09 12:17:19;;;;;;;36.80;13.98;;;1.50;86.40;;;;;;5089165;28;20078;-70
2022/12/09 12:19:51;;;;;;;32.40;11.97;;;1.50;86.50;;;;;;5080001;28;20132;-70
2022/12/09 12:22:40;;;;;;;30.95;11.38;;;1.60;86.60;;;;;;5105744;28;20286;-70
2022/12/09 12:25:29;;;;;;;30.90;11.65;;;1.60;86.60;;;;;;5089043;28;20052;-70
2022/12/09 12:28:27;;;;;;;30.05;11.70;;;1.70;86.80;;;;;;5086125;28;20052;-70
2022/12/09 12:31:00;;;;;;;29.38;11.52;;;1.70;86.90;;;;;;5085948;28;20049;-70
2022/12/09 12:33:41;;;;;;;30.67;12.50;;;1.70;87.40;;;;;;5088612;28;20048;-70
2022/12/09 12:36:19;;;;;;;33.60;12.38;;;1.80;87.40;;;;;;5089504;28;20717;-70
2022/12/09 12:39:03;;;;;;;32.47;12.32;;;1.80;87.30;;;;;;5087845;28;20044;-70
2022/12/09 12:41:41;;;;;;;28.55;11.50;;;1.80;87.30;;;;;;5085617;28;20087;-71
2022/12/09 12:47:18;;;;;;;32.00;12.13;;;1.90;87.40;;;;;;5089095;28;20363;-69
2022/12/09 12:50:07;;;;;;;32.10;12.32;;;2.00;87.50;;;;;;5089088;28;20251;-71
2022/12/09 12:52:45;;;;;;;33.38;11.57;;;2.00;87.30;;;;;;5086720;28;20102;-70
2022/12/09 12:55:22;;;;;;;29.17;11.93;;;2.10;87.30;;;;;;5086821;28;20041;-70
2022/12/09 12:57:56;;;;;;;29.83;11.85;;;2.10;87.40;;;;;;5070124;28;20502;-70
2022/12/09 13:00:25;;;;;;;28.20;10.73;;;2.10;87.30;;;;;;5086932;28;20083;-70
2022/12/09 13:02:59;;;;;;;26.67;10.73;;;2.20;87.30;;;;;;5085363;28;20279;-70
2022/12/09 13:05:29;;;;;;;34.03;12.95;;;2.20;87.20;;;;;;5087204;28;20040;-70